createdAt,value
2024-03-22T00:00:00.327Z,82.85
2024-03-22T00:00:50.296Z,82.03
2024-03-22T00:01:42.506Z,87.11
2024-03-22T00:02:30.357Z,87.19
2024-03-22T00:03:20.413Z,87.30
2024-03-22T00:04:10.467Z,87.03
2024-03-22T00:05:00.591Z,84.00
2024-03-22T00:05:50.846Z,85.89
2024-03-22T00:06:40.863Z,83.89
2024-03-22T00:07:30.928Z,84.56
2024-03-22T00:08:20.968Z,84.89
2024-03-22T00:09:11.033Z,84.19
2024-03-22T00:10:01.110Z,80.02
2024-03-22T00:10:51.203Z,82.98
2024-03-22T00:11:41.228Z,80.28
2024-03-22T00:12:31.315Z,81.97
2024-03-22T00:13:21.350Z,80.62
2024-03-22T00:14:11.429Z,81.21
2024-03-22T00:15:01.623Z,80.74
2024-03-22T00:15:51.696Z,81.51
2024-03-22T00:16:41.721Z,83.71
2024-03-22T00:17:31.791Z,80.83
2024-03-22T00:18:21.823Z,83.58
2024-03-22T00:19:11.916Z,81.58
2024-03-22T00:20:01.957Z,82.72
2024-03-22T00:20:52.029Z,82.97
2024-03-22T00:21:42.120Z,80.95
2024-03-22T00:22:32.103Z,78.93
2024-03-22T00:23:22.160Z,80.29
2024-03-22T00:24:12.451Z,79.81
2024-03-22T00:25:02.510Z,83.21
2024-03-22T00:25:52.607Z,82.05
2024-03-22T00:26:42.859Z,82.52
2024-03-22T00:27:32.941Z,83.23
2024-03-22T00:28:23.008Z,83.51
2024-03-22T00:29:13.294Z,82.06
2024-03-22T00:30:03.370Z,86.27
2024-03-22T00:30:53.424Z,85.62
2024-03-22T00:31:43.488Z,83.77
2024-03-22T00:32:33.546Z,83.71
2024-03-22T00:33:23.557Z,83.53
2024-03-22T00:34:13.636Z,84.04
2024-03-22T00:35:03.658Z,84.07
2024-03-22T00:35:53.756Z,83.01
2024-03-22T00:36:43.788Z,80.55
2024-03-22T00:37:33.860Z,82.88
2024-03-22T00:38:24.098Z,81.87
2024-03-22T00:39:14.180Z,83.41
2024-03-22T00:40:04.221Z,83.78
2024-03-22T00:40:54.587Z,82.78
2024-03-22T00:41:44.586Z,83.81
2024-03-22T00:42:34.668Z,85.59
2024-03-22T00:43:24.699Z,84.94
2024-03-22T00:44:14.767Z,83.26
2024-03-22T00:45:04.801Z,84.60
2024-03-22T00:45:54.858Z,83.27
2024-03-22T00:46:44.887Z,84.41
2024-03-22T00:47:34.962Z,83.65
2024-03-22T00:48:24.966Z,81.62
2024-03-22T00:49:15.041Z,86.80
2024-03-22T00:50:05.082Z,84.31
2024-03-22T00:50:55.144Z,85.65
2024-03-22T00:51:45.175Z,85.30
2024-03-22T00:52:35.230Z,82.96
2024-03-22T00:53:25.288Z,84.36
2024-03-22T00:54:15.375Z,86.49
2024-03-22T00:55:05.445Z,83.75
2024-03-22T00:55:55.528Z,81.45
2024-03-22T00:56:45.758Z,82.73
2024-03-22T00:57:35.814Z,81.82
2024-03-22T00:58:25.842Z,81.05
2024-03-22T00:59:16.175Z,83.49
2024-03-22T01:00:06.209Z,82.68
2024-03-22T01:00:56.323Z,82.57
2024-03-22T01:01:46.620Z,84.75
2024-03-22T01:02:36.663Z,80.86
2024-03-22T01:03:26.719Z,81.91
2024-03-22T01:04:17.056Z,83.99
2024-03-22T01:05:07.116Z,80.45
2024-03-22T01:05:57.173Z,82.53
2024-03-22T01:06:47.198Z,84.16
2024-03-22T01:07:37.249Z,84.62
2024-03-22T01:08:27.282Z,83.24
2024-03-22T01:09:17.354Z,86.77
2024-03-22T01:10:07.428Z,84.20
2024-03-22T01:10:57.482Z,83.21
2024-03-22T01:11:47.512Z,83.02
2024-03-22T01:12:37.552Z,85.13
2024-03-22T01:13:27.583Z,86.40
2024-03-22T01:14:17.664Z,83.25
2024-03-22T01:15:07.688Z,79.09
2024-03-22T01:15:57.842Z,81.91
2024-03-22T01:16:47.830Z,82.09
2024-03-22T01:17:37.922Z,83.92
2024-03-22T01:18:27.943Z,82.19
2024-03-22T01:19:18.020Z,80.34
2024-03-22T01:20:08.273Z,82.38
2024-03-22T01:20:58.393Z,80.70
2024-03-22T01:21:48.375Z,84.34
2024-03-22T01:22:38.425Z,85.27
2024-03-22T01:23:28.453Z,85.12
2024-03-22T01:24:18.502Z,86.73
2024-03-22T01:25:08.547Z,86.93
2024-03-22T01:25:58.621Z,82.50
2024-03-22T01:26:48.656Z,83.67
2024-03-22T01:27:38.720Z,83.79
2024-03-22T01:28:28.760Z,84.03
2024-03-22T01:29:18.822Z,83.97
2024-03-22T01:30:08.892Z,84.47
2024-03-22T01:30:58.968Z,83.57
2024-03-22T01:31:48.997Z,83.99
2024-03-22T01:32:39.070Z,82.60
2024-03-22T01:33:29.087Z,81.34
2024-03-22T01:34:19.429Z,80.85
2024-03-22T01:35:09.528Z,80.33
2024-03-22T01:35:59.592Z,83.78
2024-03-22T01:36:49.893Z,85.84
2024-03-22T01:37:39.950Z,84.08
2024-03-22T01:38:29.971Z,84.10
2024-03-22T01:39:21.037Z,81.81
2024-03-22T01:40:10.083Z,87.36
2024-03-22T01:41:00.163Z,85.15
2024-03-22T01:41:50.179Z,84.35
2024-03-22T01:42:40.220Z,83.72
2024-03-22T01:43:30.266Z,85.19
2024-03-22T01:44:20.314Z,86.32
2024-03-22T01:45:10.598Z,88.23
2024-03-22T01:46:00.662Z,85.76
2024-03-22T01:46:50.698Z,86.54
2024-03-22T01:47:40.742Z,86.18
2024-03-22T01:48:30.772Z,86.66
2024-03-22T01:49:20.816Z,84.11
2024-03-22T01:50:10.859Z,83.50
2024-03-22T01:51:00.945Z,82.05
2024-03-22T01:51:50.980Z,85.24
2024-03-22T01:52:41.069Z,80.75
2024-03-22T01:53:31.112Z,83.31
2024-03-22T01:54:21.421Z,82.82
2024-03-22T01:55:11.490Z,84.23
2024-03-22T01:56:01.581Z,82.90
2024-03-22T01:56:51.881Z,83.20
2024-03-22T01:57:41.954Z,81.71
2024-03-22T01:58:32.002Z,82.31
2024-03-22T01:59:22.333Z,83.77
2024-03-22T02:00:12.398Z,80.43
2024-03-22T02:01:02.469Z,81.59
2024-03-22T02:01:52.484Z,79.94
2024-03-22T02:02:42.558Z,80.73
2024-03-22T02:03:32.645Z,80.11
2024-03-22T02:04:22.672Z,83.52
2024-03-22T02:05:12.701Z,80.04
2024-03-22T02:06:02.759Z,83.81
2024-03-22T02:06:52.780Z,82.54
2024-03-22T02:07:42.885Z,81.77
2024-03-22T02:08:33.175Z,80.82
2024-03-22T02:09:23.199Z,79.90
2024-03-22T02:10:13.239Z,82.21
2024-03-22T02:11:03.328Z,79.79
2024-03-22T02:11:53.357Z,85.80
2024-03-22T02:12:43.428Z,82.98
2024-03-22T02:13:33.476Z,82.46
2024-03-22T02:14:23.528Z,83.60
2024-03-22T02:15:13.537Z,82.22
2024-03-22T02:16:03.626Z,84.37
2024-03-22T02:16:53.657Z,82.75
2024-03-22T02:17:44.029Z,85.16
2024-03-22T02:18:34.031Z,83.58
2024-03-22T02:19:24.110Z,80.74
2024-03-22T02:20:14.144Z,79.19
2024-03-22T02:21:04.251Z,83.38
2024-03-22T02:21:54.287Z,83.61
2024-03-22T02:22:44.332Z,82.69
2024-03-22T02:23:34.381Z,82.14
2024-03-22T02:24:24.437Z,83.63
2024-03-22T02:25:14.513Z,82.26
2024-03-22T02:26:04.607Z,85.54
2024-03-22T02:26:54.824Z,85.11
2024-03-22T02:27:44.865Z,84.45
2024-03-22T02:28:34.934Z,83.92
2024-03-22T02:29:24.967Z,85.66
2024-03-22T02:30:15.012Z,83.67
2024-03-22T02:31:05.123Z,81.73
2024-03-22T02:31:55.144Z,83.63
2024-03-22T02:32:45.216Z,83.30
2024-03-22T02:33:35.247Z,83.95
2024-03-22T02:34:25.294Z,81.47
2024-03-22T02:35:15.344Z,83.08
2024-03-22T02:36:05.685Z,85.63
2024-03-22T02:36:56.334Z,87.96
2024-03-22T02:37:45.795Z,85.36
2024-03-22T02:38:35.820Z,82.28
2024-03-22T02:39:25.897Z,82.57
2024-03-22T02:40:15.947Z,83.34
2024-03-22T02:41:06.023Z,84.66
2024-03-22T02:41:56.054Z,86.08
2024-03-22T02:42:46.081Z,87.60
2024-03-22T02:43:36.159Z,88.50
2024-03-22T02:44:26.235Z,88.97
2024-03-22T02:45:16.268Z,86.07
2024-03-22T02:46:06.540Z,86.42
2024-03-22T02:46:56.573Z,91.72
2024-03-22T02:47:46.613Z,90.31
2024-03-22T02:48:36.943Z,88.49
2024-03-22T02:49:26.989Z,86.39
2024-03-22T02:50:17.058Z,83.55
2024-03-22T02:51:07.112Z,87.65
2024-03-22T02:51:57.140Z,88.30
2024-03-22T02:52:47.186Z,88.33
2024-03-22T02:53:37.230Z,86.14
2024-03-22T02:54:27.298Z,87.27
2024-03-22T02:55:17.421Z,87.63
2024-03-22T02:56:07.423Z,87.32
2024-03-22T02:56:57.462Z,87.93
2024-03-22T02:57:47.511Z,87.04
2024-03-22T02:58:37.551Z,85.63
2024-03-22T02:59:27.596Z,85.53
2024-03-22T03:00:17.627Z,87.32
2024-03-22T03:01:07.678Z,85.11
2024-03-22T03:01:57.753Z,81.58
2024-03-22T03:02:47.830Z,81.23
2024-03-22T03:03:37.869Z,80.35
2024-03-22T03:04:27.920Z,79.97
2024-03-22T03:05:17.939Z,83.60
2024-03-22T03:06:08.075Z,81.92
2024-03-22T03:06:58.012Z,83.21
2024-03-22T03:07:48.068Z,84.11
2024-03-22T03:08:38.145Z,83.74
2024-03-22T03:09:28.212Z,84.62
2024-03-22T03:10:18.253Z,80.02
2024-03-22T03:11:08.330Z,84.55
2024-03-22T03:11:58.353Z,82.62
2024-03-22T03:12:48.415Z,80.59
2024-03-22T03:13:38.489Z,81.98
2024-03-22T03:14:28.566Z,81.56
2024-03-22T03:15:18.686Z,84.98
2024-03-22T03:16:08.756Z,81.51
2024-03-22T03:16:59.366Z,84.12
2024-03-22T03:17:48.844Z,85.18
2024-03-22T03:18:38.867Z,84.67
2024-03-22T03:19:28.914Z,85.26
2024-03-22T03:20:18.952Z,82.31
2024-03-22T03:21:09.023Z,82.66
2024-03-22T03:21:59.094Z,85.53
2024-03-22T03:22:49.167Z,87.10
2024-03-22T03:23:39.199Z,85.53
2024-03-22T03:24:29.273Z,83.95
2024-03-22T03:25:19.307Z,84.73
2024-03-22T03:26:09.435Z,85.85
2024-03-22T03:26:59.447Z,79.40
2024-03-22T03:27:49.476Z,81.54
2024-03-22T03:28:39.505Z,82.95
2024-03-22T03:29:29.586Z,83.89
2024-03-22T03:30:19.643Z,78.45
2024-03-22T03:31:09.696Z,80.91
2024-03-22T03:31:59.730Z,82.01
2024-03-22T03:32:49.814Z,81.86
2024-03-22T03:33:39.843Z,84.71
2024-03-22T03:34:29.883Z,81.26
2024-03-22T03:35:19.947Z,83.52
2024-03-22T03:36:10.055Z,84.47
2024-03-22T03:37:00.088Z,81.79
2024-03-22T03:37:50.373Z,82.19
2024-03-22T03:38:40.457Z,79.09
2024-03-22T03:39:30.464Z,81.50
2024-03-22T03:40:20.491Z,79.76
2024-03-22T03:41:10.618Z,79.15
2024-03-22T03:42:00.630Z,82.40
2024-03-22T03:42:50.728Z,83.25
2024-03-22T03:43:40.769Z,82.01
2024-03-22T03:44:30.808Z,80.85
2024-03-22T03:45:20.844Z,79.25
2024-03-22T03:46:10.907Z,80.52
2024-03-22T03:47:01.197Z,80.79
2024-03-22T03:47:51.260Z,82.07
2024-03-22T03:48:41.288Z,81.18
2024-03-22T03:49:31.374Z,81.25
2024-03-22T03:50:21.423Z,82.09
2024-03-22T03:51:11.491Z,81.48
2024-03-22T03:52:01.522Z,83.45
2024-03-22T03:52:51.605Z,83.61
2024-03-22T03:53:41.657Z,83.24
2024-03-22T03:54:31.725Z,83.68
2024-03-22T03:55:21.754Z,85.13
2024-03-22T03:56:11.811Z,81.67
2024-03-22T03:57:01.845Z,85.99
2024-03-22T03:57:51.885Z,77.61
2024-03-22T03:58:41.937Z,82.19
2024-03-22T03:59:31.992Z,81.09
2024-03-22T04:00:22.073Z,82.11
2024-03-22T04:01:12.162Z,81.32
2024-03-22T04:02:02.190Z,81.25
2024-03-22T04:02:52.533Z,80.87
2024-03-22T04:03:42.571Z,82.55
2024-03-22T04:04:32.653Z,79.48
2024-03-22T04:05:22.677Z,82.80
2024-03-22T04:06:12.737Z,84.45
2024-03-22T04:07:02.752Z,82.18
2024-03-22T04:07:52.838Z,82.67
2024-03-22T04:08:42.898Z,82.50
2024-03-22T04:09:32.954Z,81.99
2024-03-22T04:10:22.979Z,80.36
2024-03-22T04:11:13.058Z,81.77
2024-03-22T04:12:03.084Z,80.97
2024-03-22T04:12:53.157Z,82.58
2024-03-22T04:13:43.189Z,81.52
2024-03-22T04:14:33.273Z,81.22
2024-03-22T04:15:23.334Z,79.38
2024-03-22T04:16:13.387Z,82.71
2024-03-22T04:17:03.422Z,82.71
2024-03-22T04:17:53.464Z,79.90
2024-03-22T04:18:43.762Z,83.14
2024-03-22T04:19:33.835Z,85.40
2024-03-22T04:20:23.880Z,82.12
2024-03-22T04:21:13.947Z,85.72
2024-03-22T04:22:03.976Z,86.13
2024-03-22T04:22:54.052Z,85.52
2024-03-22T04:23:44.145Z,86.88
2024-03-22T04:24:34.131Z,85.39
2024-03-22T04:25:24.225Z,87.55
2024-03-22T04:26:14.279Z,85.79
2024-03-22T04:27:04.330Z,84.57
2024-03-22T04:27:54.367Z,85.65
2024-03-22T04:28:44.407Z,85.14
2024-03-22T04:29:34.458Z,87.19
2024-03-22T04:30:24.492Z,87.29
2024-03-22T04:31:14.544Z,88.65
2024-03-22T04:32:04.627Z,89.06
2024-03-22T04:32:54.693Z,87.86
2024-03-22T04:33:44.761Z,91.10
2024-03-22T04:34:35.051Z,88.38
2024-03-22T04:35:25.118Z,91.61
2024-03-22T04:36:15.216Z,91.76
2024-03-22T04:37:05.513Z,89.45
2024-03-22T04:37:55.572Z,89.13
2024-03-22T04:38:45.622Z,89.55
2024-03-22T04:39:35.685Z,88.18
2024-03-22T04:40:25.763Z,88.78
2024-03-22T04:41:15.848Z,89.12
2024-03-22T04:42:05.886Z,87.28
2024-03-22T04:42:55.973Z,85.66
2024-03-22T04:43:45.993Z,86.14
2024-03-22T04:44:36.076Z,87.51
2024-03-22T04:45:26.162Z,87.21
2024-03-22T04:46:16.394Z,88.39
2024-03-22T04:47:06.406Z,90.19
2024-03-22T04:47:56.477Z,90.24
2024-03-22T04:48:46.791Z,85.92
2024-03-22T04:49:36.833Z,87.78
2024-03-22T04:50:26.872Z,87.69
2024-03-22T04:51:16.972Z,89.11
2024-03-22T04:52:07.022Z,83.66
2024-03-22T04:52:57.052Z,85.86
2024-03-22T04:53:47.129Z,89.20
2024-03-22T04:54:37.161Z,87.64
2024-03-22T04:55:27.195Z,86.53
2024-03-22T04:56:17.284Z,84.50
2024-03-22T04:57:07.333Z,84.42
2024-03-22T04:57:57.380Z,83.68
2024-03-22T04:58:47.415Z,85.61
2024-03-22T04:59:37.446Z,86.97
2024-03-22T05:00:27.493Z,88.07
2024-03-22T05:01:17.545Z,90.34
2024-03-22T05:02:07.632Z,87.56
2024-03-22T05:02:57.690Z,86.75
2024-03-22T05:03:47.722Z,86.67
2024-03-22T05:04:38.748Z,84.48
2024-03-22T05:05:28.086Z,83.54
2024-03-22T05:06:18.155Z,87.44
2024-03-22T05:07:08.187Z,88.32
2024-03-22T05:07:58.261Z,88.77
2024-03-22T05:08:48.331Z,83.60
2024-03-22T05:09:38.404Z,87.51
2024-03-22T05:10:28.442Z,84.77
2024-03-22T05:11:18.500Z,85.94
2024-03-22T05:12:08.541Z,84.24
2024-03-22T05:12:58.597Z,85.46
2024-03-22T05:13:48.879Z,88.80
2024-03-22T05:14:38.945Z,89.95
2024-03-22T05:15:28.994Z,81.86
2024-03-22T05:16:19.096Z,87.74
2024-03-22T05:17:09.106Z,83.98
2024-03-22T05:17:59.163Z,87.09
2024-03-22T05:18:49.179Z,84.53
2024-03-22T05:19:39.231Z,83.68
2024-03-22T05:20:29.394Z,85.05
2024-03-22T05:21:19.485Z,82.05
2024-03-22T05:22:09.503Z,80.63
2024-03-22T05:22:59.550Z,80.54
2024-03-22T05:23:49.570Z,80.29
2024-03-22T05:24:39.643Z,79.63
2024-03-22T05:25:29.946Z,81.17
2024-03-22T05:26:19.778Z,81.03
2024-03-22T05:27:09.821Z,83.60
2024-03-22T05:27:59.863Z,83.06
2024-03-22T05:28:49.899Z,81.62
2024-03-22T05:29:39.997Z,83.01
2024-03-22T05:30:30.003Z,80.82
2024-03-22T05:31:20.074Z,84.44
2024-03-22T05:32:10.098Z,82.06
2024-03-22T05:33:00.160Z,84.21
2024-03-22T05:33:50.256Z,84.09
2024-03-22T05:34:40.301Z,82.87
2024-03-22T05:35:30.345Z,82.38
2024-03-22T05:36:20.701Z,81.84
2024-03-22T05:37:10.745Z,78.91
2024-03-22T05:38:00.802Z,80.31
2024-03-22T05:38:50.849Z,82.84
2024-03-22T05:39:40.893Z,82.10
2024-03-22T05:40:30.936Z,77.99
2024-03-22T05:41:22.038Z,84.16
2024-03-22T05:42:11.032Z,85.37
2024-03-22T05:43:01.081Z,82.85
2024-03-22T05:43:51.125Z,79.26
2024-03-22T05:44:41.217Z,81.23
2024-03-22T05:45:31.246Z,81.87
2024-03-22T05:46:21.325Z,79.16
2024-03-22T05:47:13.150Z,82.57
2024-03-22T05:48:01.634Z,86.95
2024-03-22T05:48:51.786Z,81.19
2024-03-22T05:49:41.883Z,82.55
2024-03-22T05:50:31.893Z,83.06
2024-03-22T05:51:21.944Z,84.32
2024-03-22T05:52:11.985Z,85.72
2024-03-22T05:53:02.023Z,84.68
2024-03-22T05:53:52.064Z,84.78
2024-03-22T05:54:42.128Z,85.00
2024-03-22T05:55:32.160Z,85.57
2024-03-22T05:56:22.239Z,86.03
2024-03-22T05:57:12.276Z,85.25
2024-03-22T05:58:02.315Z,87.71
2024-03-22T05:58:52.348Z,87.27
2024-03-22T05:59:42.420Z,86.71
2024-03-22T06:00:32.701Z,89.72
2024-03-22T06:01:22.746Z,84.46
2024-03-22T06:02:12.784Z,88.18
2024-03-22T06:03:02.828Z,85.28
2024-03-22T06:03:52.867Z,85.15
2024-03-22T06:04:45.102Z,85.43
2024-03-22T06:05:32.975Z,85.48
2024-03-22T06:06:23.038Z,85.62
2024-03-22T06:07:13.110Z,85.53
2024-03-22T06:08:03.157Z,85.53
2024-03-22T06:08:53.229Z,84.11
2024-03-22T06:09:43.282Z,84.53
2024-03-22T06:10:33.303Z,83.70
2024-03-22T06:11:23.396Z,83.38
2024-03-22T06:12:13.445Z,84.02
2024-03-22T06:13:03.730Z,83.18
2024-03-22T06:13:53.770Z,83.39
2024-03-22T06:14:43.848Z,81.52
2024-03-22T06:15:33.880Z,82.98
2024-03-22T06:16:23.926Z,82.05
2024-03-22T06:17:13.969Z,81.95
2024-03-22T06:18:04.007Z,80.69
2024-03-22T06:18:54.040Z,80.28
2024-03-22T06:19:44.138Z,81.55
2024-03-22T06:20:34.173Z,81.91
2024-03-22T06:21:24.258Z,80.86
2024-03-22T06:22:14.284Z,82.45
2024-03-22T06:23:04.323Z,84.18
2024-03-22T06:23:54.356Z,81.59
2024-03-22T06:24:44.439Z,84.64
2024-03-22T06:25:34.474Z,82.67
2024-03-22T06:26:35.255Z,80.41
2024-03-22T06:27:15.613Z,80.66
2024-03-22T06:28:04.670Z,81.64
2024-03-22T06:28:54.692Z,82.25
2024-03-22T06:29:44.760Z,82.85
2024-03-22T06:30:34.758Z,83.99
2024-03-22T06:31:24.837Z,86.04
2024-03-22T06:32:14.898Z,85.99
2024-03-22T06:33:05.198Z,85.23
2024-03-22T06:33:55.238Z,80.85
2024-03-22T06:34:45.356Z,86.05
2024-03-22T06:35:35.341Z,83.84
2024-03-22T06:36:25.414Z,86.35
2024-03-22T06:37:15.508Z,87.34
2024-03-22T06:38:05.523Z,88.72
2024-03-22T06:38:55.561Z,85.50
2024-03-22T06:39:45.634Z,82.07
2024-03-22T06:40:35.665Z,85.67
2024-03-22T06:41:25.756Z,85.85
2024-03-22T06:42:16.475Z,86.88
2024-03-22T06:43:05.855Z,86.98
2024-03-22T06:43:55.881Z,84.11
2024-03-22T06:44:45.932Z,85.24
2024-03-22T06:45:35.955Z,84.75
2024-03-22T06:46:26.040Z,83.56
2024-03-22T06:47:16.092Z,82.14
2024-03-22T06:48:06.140Z,82.58
2024-03-22T06:48:56.181Z,85.33
2024-03-22T06:49:46.227Z,82.55
2024-03-22T06:50:36.249Z,83.49
2024-03-22T06:51:26.336Z,84.73
2024-03-22T06:52:16.406Z,84.02
2024-03-22T06:53:06.459Z,83.26
2024-03-22T06:53:56.515Z,82.75
2024-03-22T06:54:46.539Z,78.45
2024-03-22T06:55:36.569Z,79.89
2024-03-22T06:56:26.616Z,80.52
2024-03-22T06:57:16.709Z,78.68
2024-03-22T06:58:06.753Z,80.83
2024-03-22T06:58:56.791Z,78.97
2024-03-22T06:59:46.858Z,82.36
2024-03-22T07:00:36.887Z,81.13
2024-03-22T07:01:26.953Z,82.80
2024-03-22T07:02:17.009Z,82.12
2024-03-22T07:03:07.065Z,80.13
2024-03-22T07:03:57.129Z,78.89
2024-03-22T07:04:47.158Z,79.67
2024-03-22T07:05:37.200Z,76.60
2024-03-22T07:06:27.256Z,79.94
2024-03-22T07:07:17.331Z,80.45
2024-03-22T07:08:07.375Z,78.17
2024-03-22T07:08:57.470Z,80.21
2024-03-22T07:09:47.489Z,80.48
2024-03-22T07:10:37.581Z,79.00
2024-03-22T07:11:27.741Z,80.67
2024-03-22T07:12:17.667Z,80.42
2024-03-22T07:13:07.697Z,81.27
2024-03-22T07:13:57.735Z,83.99
2024-03-22T07:14:47.773Z,77.48
2024-03-22T07:15:37.812Z,80.46
2024-03-22T07:16:27.856Z,80.88
2024-03-22T07:17:17.908Z,80.93
2024-03-22T07:18:07.970Z,79.52
2024-03-22T07:18:58.029Z,83.20
2024-03-22T07:19:48.100Z,79.76
2024-03-22T07:20:38.130Z,80.68
2024-03-22T07:21:28.182Z,80.59
2024-03-22T07:22:18.218Z,79.31
2024-03-22T07:23:08.259Z,84.34
2024-03-22T07:23:58.287Z,82.96
2024-03-22T07:24:48.348Z,84.83
2024-03-22T07:25:38.362Z,80.56
2024-03-22T07:26:31.051Z,81.13
2024-03-22T07:27:18.494Z,81.23
2024-03-22T07:28:08.541Z,81.33
2024-03-22T07:28:58.608Z,81.95
2024-03-22T07:29:48.703Z,82.73
2024-03-22T07:30:38.719Z,80.44
2024-03-22T07:31:28.784Z,79.00
2024-03-22T07:32:18.839Z,81.20
2024-03-22T07:33:08.896Z,81.79
2024-03-22T07:33:58.955Z,81.62
2024-03-22T07:34:49.031Z,80.37
2024-03-22T07:35:39.326Z,79.12
2024-03-22T07:36:29.396Z,78.92
2024-03-22T07:37:22.048Z,79.87
2024-03-22T07:38:09.493Z,85.73
2024-03-22T07:38:59.532Z,81.76
2024-03-22T07:39:49.588Z,82.50
2024-03-22T07:40:39.608Z,82.15
2024-03-22T07:41:30.128Z,78.81
2024-03-22T07:42:19.734Z,80.90
2024-03-22T07:43:09.770Z,81.52
2024-03-22T07:43:59.890Z,82.15
2024-03-22T07:44:50.000Z,81.39
2024-03-22T07:45:40.013Z,81.31
2024-03-22T07:46:30.049Z,80.65
2024-03-22T07:47:20.133Z,79.16
2024-03-22T07:48:10.180Z,78.41
2024-03-22T07:49:00.223Z,78.85
2024-03-22T07:49:50.258Z,81.16
2024-03-22T07:50:40.320Z,80.24
2024-03-22T07:51:30.410Z,79.98
2024-03-22T07:52:20.462Z,77.28
2024-03-22T07:53:10.458Z,78.06
2024-03-22T07:54:00.475Z,80.77
2024-03-22T07:54:50.573Z,79.31
2024-03-22T07:55:40.576Z,80.02
2024-03-22T07:56:30.613Z,78.79
2024-03-22T07:57:20.717Z,77.20
2024-03-22T07:58:10.749Z,76.70
2024-03-22T07:59:00.784Z,76.60
2024-03-22T07:59:51.103Z,76.78
2024-03-22T08:00:40.881Z,77.45
2024-03-22T08:01:30.958Z,78.12
2024-03-22T08:02:21.000Z,77.55
2024-03-22T08:03:11.053Z,79.70
2024-03-22T08:04:01.078Z,78.93
2024-03-22T08:04:51.121Z,82.25
2024-03-22T08:05:41.160Z,78.90
2024-03-22T08:06:31.298Z,81.20
2024-03-22T08:07:21.297Z,80.11
2024-03-22T08:08:11.410Z,82.60
2024-03-22T08:09:01.389Z,79.94
2024-03-22T08:09:51.432Z,81.67
2024-03-22T08:10:41.515Z,77.63
2024-03-22T08:11:31.529Z,80.22
2024-03-22T08:12:21.579Z,79.68
2024-03-22T08:13:11.625Z,79.38
2024-03-22T08:14:01.668Z,80.57
2024-03-22T08:14:51.755Z,79.68
2024-03-22T08:15:41.851Z,76.74
2024-03-22T08:16:31.883Z,77.39
2024-03-22T08:17:21.908Z,76.17
2024-03-22T08:18:11.954Z,78.95
2024-03-22T08:19:01.994Z,77.79
2024-03-22T08:19:52.045Z,76.19
2024-03-22T08:20:42.073Z,77.22
2024-03-22T08:21:32.203Z,74.99
2024-03-22T08:22:22.272Z,77.19
2024-03-22T08:23:12.315Z,77.24
2024-03-22T08:24:02.342Z,74.85
2024-03-22T08:24:52.386Z,75.87
2024-03-22T08:25:42.580Z,73.97
2024-03-22T08:26:32.504Z,77.30
2024-03-22T08:27:22.567Z,75.43
2024-03-22T08:28:17.458Z,77.34
2024-03-22T08:29:03.739Z,77.41
2024-03-22T08:29:52.807Z,77.90
2024-03-22T08:30:42.807Z,78.55
2024-03-22T08:31:32.851Z,79.22
2024-03-22T08:32:23.007Z,79.82
2024-03-22T08:33:14.500Z,81.38
2024-03-22T08:34:03.037Z,82.06
2024-03-22T08:34:53.083Z,81.33
2024-03-22T08:35:43.111Z,80.09
2024-03-22T08:36:33.155Z,82.91
2024-03-22T08:37:23.338Z,77.84
2024-03-22T08:38:13.263Z,80.11
2024-03-22T08:39:03.323Z,78.96
2024-03-22T08:39:53.362Z,81.85
2024-03-22T08:40:43.417Z,79.22
2024-03-22T08:41:33.460Z,80.56
2024-03-22T08:42:23.517Z,80.33
2024-03-22T08:43:13.640Z,80.02
2024-03-22T08:44:03.627Z,80.06
2024-03-22T08:44:53.748Z,78.73
2024-03-22T08:45:43.861Z,82.71
2024-03-22T08:46:33.824Z,82.09
2024-03-22T08:47:23.938Z,80.26
2024-03-22T08:48:13.909Z,80.48
2024-03-22T08:49:03.947Z,80.88
2024-03-22T08:49:54.091Z,81.62
2024-03-22T08:50:44.087Z,81.78
2024-03-22T08:51:34.097Z,82.09
2024-03-22T08:52:24.258Z,80.46
2024-03-22T08:53:14.308Z,78.48
2024-03-22T08:54:04.355Z,77.50
2024-03-22T08:54:54.428Z,78.04
2024-03-22T08:55:44.468Z,78.78
2024-03-22T08:56:34.523Z,77.82
2024-03-22T08:57:24.598Z,77.34
2024-03-22T08:58:14.635Z,80.70
2024-03-22T08:59:04.734Z,78.81
2024-03-22T08:59:54.940Z,74.02
2024-03-22T09:00:44.836Z,76.14
2024-03-22T09:01:34.881Z,76.43
2024-03-22T09:02:24.975Z,80.44
2024-03-22T09:03:14.951Z,78.89
2024-03-22T09:04:05.065Z,80.18
2024-03-22T09:04:55.147Z,77.86
2024-03-22T09:05:53.203Z,78.07
2024-03-22T09:06:36.187Z,78.25
2024-03-22T09:07:25.241Z,79.37
2024-03-22T09:08:15.283Z,80.83
2024-03-22T09:09:05.296Z,81.99
2024-03-22T09:09:55.387Z,85.03
2024-03-22T09:10:45.459Z,86.85
2024-03-22T09:11:35.499Z,85.06
2024-03-22T09:12:25.802Z,83.47
2024-03-22T09:13:16.078Z,81.79
2024-03-22T09:14:05.884Z,84.81
2024-03-22T09:14:56.026Z,82.65
2024-03-22T09:15:46.038Z,84.18
2024-03-22T09:16:36.092Z,81.96
2024-03-22T09:17:26.136Z,84.05
2024-03-22T09:18:16.168Z,83.91
2024-03-22T09:19:08.133Z,84.53
2024-03-22T09:19:56.366Z,83.79
2024-03-22T09:20:46.390Z,82.82
2024-03-22T09:21:36.527Z,81.46
2024-03-22T09:22:26.571Z,81.93
2024-03-22T09:23:16.650Z,83.19
2024-03-22T09:24:06.654Z,84.58
2024-03-22T09:24:56.710Z,83.13
2024-03-22T09:25:48.809Z,85.92
2024-03-22T09:26:36.813Z,85.99
2024-03-22T09:27:26.916Z,86.13
2024-03-22T09:28:16.947Z,86.45
2024-03-22T09:29:07.006Z,85.73
2024-03-22T09:29:57.008Z,86.45
2024-03-22T09:30:56.541Z,87.24
2024-03-22T09:31:38.358Z,85.97
2024-03-22T09:32:27.498Z,86.47
2024-03-22T09:33:17.462Z,86.10
2024-03-22T09:34:07.527Z,86.51
2024-03-22T09:34:57.620Z,86.32
2024-03-22T09:35:47.630Z,86.20
2024-03-22T09:36:37.699Z,82.08
2024-03-22T09:37:27.798Z,86.05
2024-03-22T09:38:17.817Z,86.16
2024-03-22T09:39:07.847Z,86.00
2024-03-22T09:39:57.899Z,83.11
2024-03-22T09:40:47.947Z,81.53
2024-03-22T09:41:39.577Z,82.33
2024-03-22T09:42:28.113Z,79.50
2024-03-22T09:43:18.145Z,79.54
2024-03-22T09:44:08.443Z,81.55
2024-03-22T09:44:58.511Z,78.60
2024-03-22T09:45:48.525Z,81.03
2024-03-22T09:46:38.598Z,80.05
2024-03-22T09:47:28.638Z,78.59
2024-03-22T09:48:18.718Z,80.04
2024-03-22T09:49:08.743Z,78.22
2024-03-22T09:49:58.797Z,78.58
2024-03-22T09:50:49.001Z,78.74
2024-03-22T09:51:38.925Z,79.08
2024-03-22T09:52:28.950Z,79.74
2024-03-22T09:53:18.984Z,79.91
2024-03-22T09:54:09.100Z,79.48
2024-03-22T09:54:59.229Z,81.11
2024-03-22T09:55:49.369Z,80.05
2024-03-22T09:56:39.333Z,80.31
2024-03-22T09:57:29.410Z,80.95
2024-03-22T09:58:19.478Z,81.41
2024-03-22T09:59:09.482Z,83.11
2024-03-22T09:59:59.583Z,83.93
2024-03-22T10:00:49.637Z,84.52
2024-03-22T10:01:39.633Z,84.82
2024-03-22T10:02:29.694Z,82.10
2024-03-22T10:03:19.740Z,82.18
2024-03-22T10:04:09.762Z,80.13
2024-03-22T10:04:59.839Z,79.12
2024-03-22T10:05:49.872Z,79.59
2024-03-22T10:06:39.919Z,77.34
2024-03-22T10:07:29.971Z,76.34
2024-03-22T10:08:20.016Z,78.09
2024-03-22T10:09:10.048Z,74.20
2024-03-22T10:10:00.146Z,79.42
2024-03-22T10:10:50.137Z,78.88
2024-03-22T10:11:40.804Z,79.59
2024-03-22T10:12:30.284Z,75.94
2024-03-22T10:13:20.319Z,75.99
2024-03-22T10:14:15.750Z,79.03
2024-03-22T10:15:00.422Z,79.07
2024-03-22T10:15:50.499Z,79.28
2024-03-22T10:16:40.525Z,79.43
2024-03-22T10:17:30.598Z,75.86
2024-03-22T10:18:20.656Z,74.71
2024-03-22T10:19:10.661Z,77.54
2024-03-22T10:20:00.757Z,77.81
2024-03-22T10:20:50.790Z,74.95
2024-03-22T10:21:41.082Z,80.41
2024-03-22T10:22:31.150Z,76.75
2024-03-22T10:23:21.151Z,76.80
2024-03-22T10:24:11.203Z,78.60
2024-03-22T10:25:01.247Z,78.57
2024-03-22T10:25:51.291Z,79.64
2024-03-22T10:26:41.342Z,81.05
2024-03-22T10:27:31.410Z,82.77
2024-03-22T10:28:22.485Z,82.78
2024-03-22T10:29:11.666Z,80.81
2024-03-22T10:30:01.689Z,77.58
2024-03-22T10:30:51.661Z,80.55
2024-03-22T10:31:41.722Z,80.86
2024-03-22T10:32:31.912Z,81.52
2024-03-22T10:33:21.837Z,80.59
2024-03-22T10:34:11.997Z,76.90
2024-03-22T10:35:02.005Z,80.04
2024-03-22T10:35:52.038Z,80.83
2024-03-22T10:36:42.063Z,82.28
2024-03-22T10:37:32.445Z,83.67
2024-03-22T10:38:22.519Z,81.80
2024-03-22T10:39:12.623Z,80.12
2024-03-22T10:40:02.581Z,82.28
2024-03-22T10:40:52.610Z,82.55
2024-03-22T10:41:42.718Z,83.22
2024-03-22T10:42:32.720Z,80.30
2024-03-22T10:43:22.787Z,81.59
2024-03-22T10:44:12.850Z,82.08